Time;durP1;ratioP1;P1;durP2;ratioP2;P2;SDS_P1;SDS_P2;PMS_P1;PMS_P2;Temp;Humidity;BMP_temperature;BMP_pressure;BME280_temperature;BME280_humidity;BME280_pressure;Samples;Min_cycle;Max_cycle;Signal;HPM_P1;HPM_P2
2022/03/17 00:01:39;;;;;;;22.67;13.83;;;5.70;99.90;;;;;;5071215;28;20188;-81
2022/03/17 00:04:04;;;;;;;23.00;13.73;;;5.70;99.90;;;;;;5071783;28;20208;-79
2022/03/17 00:06:30;;;;;;;22.37;14.50;;;5.70;99.90;;;;;;5082620;28;20189;-81
2022/03/17 00:08:56;;;;;;;23.90;14.67;;;5.70;99.90;;;;;;5072299;28;20266;-82
2022/03/17 00:11:22;;;;;;;22.07;14.40;;;5.70;99.90;;;;;;5071739;28;20271;-80
2022/03/17 00:13:48;;;;;;;21.33;13.87;;;5.70;99.90;;;;;;5071884;28;20697;-80
2022/03/17 00:16:13;;;;;;;24.27;15.60;;;5.60;99.90;;;;;;5072232;28;20193;-81
2022/03/17 00:18:39;;;;;;;22.63;13.90;;;5.60;99.90;;;;;;5082184;28;20185;-81
2022/03/17 00:21:06;;;;;;;23.97;14.53;;;5.50;99.90;;;;;;5072173;28;20272;-79
2022/03/17 00:23:31;;;;;;;26.73;16.00;;;5.40;99.90;;;;;;5069898;28;20209;-82
2022/03/17 00:25:57;;;;;;;22.87;14.57;;;5.40;99.90;;;;;;5078613;28;20224;-79
2022/03/17 00:28:23;;;;;;;23.37;15.23;;;5.40;99.90;;;;;;5079843;28;20185;-81
2022/03/17 00:30:48;;;;;;;25.43;16.17;;;5.30;99.90;;;;;;5070561;28;20190;-83
2022/03/17 00:33:14;;;;;;;26.07;15.80;;;5.40;99.90;;;;;;5080555;28;20233;-80
2022/03/17 00:35:42;;;;;;;24.80;14.57;;;5.40;99.90;;;;;;5079629;28;20187;-82
2022/03/17 00:38:14;;;;;;;24.67;16.30;;;5.50;99.90;;;;;;5069716;28;20189;-80
2022/03/17 00:40:42;;;;;;;25.47;16.20;;;5.50;99.90;;;;;;5077144;28;20185;-78
2022/03/17 00:43:11;;;;;;;24.03;15.00;;;5.50;99.90;;;;;;5068996;28;20211;-79
2022/03/17 00:45:37;;;;;;;27.20;16.37;;;5.50;99.90;;;;;;5068326;28;20240;-82
2022/03/17 00:48:03;;;;;;;25.50;16.70;;;5.50;99.90;;;;;;5070045;28;20191;-82
2022/03/17 00:50:29;;;;;;;27.70;16.33;;;5.60;99.90;;;;;;5069889;28;20181;-82
2022/03/17 00:52:55;;;;;;;27.60;16.73;;;5.60;99.90;;;;;;5080588;28;20238;-78
2022/03/17 00:55:22;;;;;;;26.47;17.10;;;5.60;99.90;;;;;;5080938;28;21221;-80
2022/03/17 00:57:48;;;;;;;28.80;17.77;;;5.50;99.90;;;;;;5069471;28;20189;-82
2022/03/17 01:00:15;;;;;;;26.30;16.17;;;5.60;99.90;;;;;;5069614;28;20569;-81
2022/03/17 01:02:45;;;;;;;27.93;17.70;;;5.50;99.90;;;;;;5077881;28;20215;-80
2022/03/17 01:05:11;;;;;;;25.77;16.40;;;5.50;99.90;;;;;;5067734;28;20705;-79
2022/03/17 01:07:40;;;;;;;28.70;17.57;;;5.60;99.90;;;;;;5068836;28;20268;-80
2022/03/17 01:10:08;;;;;;;30.27;18.53;;;5.50;99.90;;;;;;5081187;28;21010;-83
2022/03/17 01:12:34;;;;;;;26.67;17.10;;;5.50;99.90;;;;;;5080769;28;20229;-82
2022/03/17 01:15:00;;;;;;;29.60;17.77;;;5.50;99.90;;;;;;5079788;28;20193;-80
2022/03/17 01:17:26;;;;;;;29.17;17.67;;;5.50;99.90;;;;;;5067315;28;20189;-80
2022/03/17 01:19:52;;;;;;;28.53;17.43;;;5.50;99.90;;;;;;5068157;28;20212;-81
2022/03/17 01:22:18;;;;;;;28.67;17.03;;;5.50;99.90;;;;;;5067433;28;20388;-80
2022/03/17 01:24:45;;;;;;;27.13;17.07;;;5.50;99.90;;;;;;5068245;28;20219;-80
2022/03/17 01:27:11;;;;;;;30.67;19.27;;;5.50;99.90;;;;;;5066916;28;20239;-81
2022/03/17 01:29:38;;;;;;;27.60;18.00;;;5.50;99.90;;;;;;5066418;28;20189;-79
2022/03/17 01:32:04;;;;;;;30.07;18.43;;;5.40;99.90;;;;;;5075766;28;20185;-80
2022/03/17 01:34:30;;;;;;;29.37;18.67;;;5.50;99.90;;;;;;5065780;28;20276;-79
2022/03/17 01:36:56;;;;;;;29.67;17.80;;;5.40;99.90;;;;;;5066375;28;20272;-79
2022/03/17 01:39:21;;;;;;;28.30;17.90;;;5.40;99.90;;;;;;5065681;28;20196;-79
2022/03/17 01:41:47;;;;;;;28.07;17.80;;;5.40;99.90;;;;;;5066050;28;20212;-79
2022/03/17 01:44:12;;;;;;;27.57;17.40;;;5.40;99.90;;;;;;5076611;28;20201;-82
2022/03/17 01:49:22;;;;;;;28.57;17.10;;;5.40;99.90;;;;;;5077128;28;20235;-78
2022/03/17 01:51:48;;;;;;;30.10;18.40;;;5.50;99.90;;;;;;5066013;28;20189;-80
2022/03/17 01:54:16;;;;;;;25.40;17.60;;;5.40;99.90;;;;;;5075989;28;20200;-81
2022/03/17 01:56:42;;;;;;;28.73;17.70;;;5.30;99.90;;;;;;5065533;28;20208;-81
2022/03/17 01:59:08;;;;;;;30.50;17.17;;;5.30;99.90;;;;;;5064898;28;20239;-81
2022/03/17 02:01:34;;;;;;;27.00;17.10;;;5.30;99.90;;;;;;5064856;28;20185;-80
2022/03/17 02:03:59;;;;;;;31.40;18.60;;;5.30;99.90;;;;;;5065363;28;20206;-81
2022/03/17 02:06:25;;;;;;;29.53;18.53;;;5.30;99.90;;;;;;5066139;28;20218;-84
2022/03/17 02:08:51;;;;;;;29.07;18.63;;;5.30;99.90;;;;;;5067396;28;20189;-77
2022/03/17 02:14:13;;;;;;;29.40;18.13;;;5.30;99.90;;;;;;5033732;28;20233;-82
2022/03/17 02:16:39;;;;;;;29.33;18.43;;;5.20;99.90;;;;;;5072281;28;20180;-81
2022/03/17 02:19:06;;;;;;;28.90;17.90;;;5.20;99.90;;;;;;5084918;28;20662;-78
2022/03/17 02:21:34;;;;;;;29.43;18.27;;;5.20;99.90;;;;;;5072060;28;20189;-79
2022/03/17 02:26:45;;;;;;;28.90;18.47;;;5.20;99.90;;;;;;5083063;28;20709;-80
2022/03/17 02:29:12;;;;;;;29.50;18.27;;;5.10;99.90;;;;;;5083964;28;20275;-77
2022/03/17 02:31:38;;;;;;;31.40;18.27;;;5.20;99.90;;;;;;5082643;28;20186;-77
2022/03/17 02:34:03;;;;;;;28.57;16.90;;;5.20;99.90;;;;;;5068830;28;20273;-79
2022/03/17 02:36:29;;;;;;;30.03;18.60;;;5.20;99.90;;;;;;5081041;28;20614;-83
2022/03/17 02:38:55;;;;;;;30.00;18.87;;;5.20;99.90;;;;;;5069248;28;20185;-82
2022/03/17 02:41:23;;;;;;;26.33;17.83;;;5.20;99.90;;;;;;5073756;28;20239;-82
2022/03/17 02:43:52;;;;;;;27.17;17.67;;;5.20;99.90;;;;;;5068994;28;20222;-79
2022/03/17 02:46:18;;;;;;;26.93;17.27;;;5.10;99.90;;;;;;5068564;28;20338;-81
2022/03/17 02:48:44;;;;;;;31.83;19.07;;;5.10;99.90;;;;;;5067664;28;20683;-82
2022/03/17 02:51:11;;;;;;;31.07;18.93;;;5.10;99.90;;;;;;5082288;28;20185;-81
2022/03/17 02:53:37;;;;;;;29.63;18.53;;;5.10;99.90;;;;;;5083329;28;20668;-78
2022/03/17 02:56:02;;;;;;;28.23;17.87;;;5.10;99.90;;;;;;5071545;28;20193;-79
2022/03/17 02:58:31;;;;;;;31.97;18.40;;;5.10;99.90;;;;;;5078876;28;20284;-82
2022/03/17 03:01:00;;;;;;;30.77;18.60;;;5.20;99.90;;;;;;5067060;28;20599;-79
2022/03/17 03:03:25;;;;;;;26.83;17.07;;;5.20;99.90;;;;;;5069780;28;20209;-81
2022/03/17 03:05:51;;;;;;;30.07;18.67;;;5.30;99.90;;;;;;5069008;28;20209;-81
2022/03/17 03:08:16;;;;;;;30.77;18.17;;;5.30;99.90;;;;;;5070458;28;20184;-78
2022/03/17 03:10:44;;;;;;;30.87;18.10;;;5.30;99.90;;;;;;5077771;28;20213;-79
2022/03/17 03:13:10;;;;;;;27.70;18.27;;;5.30;99.90;;;;;;5068767;28;20208;-80
2022/03/17 03:15:35;;;;;;;28.37;18.40;;;5.30;99.90;;;;;;5068918;28;20185;-77
2022/03/17 03:18:01;;;;;;;30.17;18.53;;;5.20;99.90;;;;;;5071304;28;20209;-83
2022/03/17 03:20:27;;;;;;;28.63;18.07;;;5.30;99.90;;;;;;5070533;28;20185;-83
2022/03/17 03:22:52;;;;;;;30.20;18.83;;;5.40;99.90;;;;;;5071895;28;20272;-79
2022/03/17 03:25:18;;;;;;;31.40;20.03;;;5.40;99.90;;;;;;5069728;28;20221;-80
2022/03/17 03:27:44;;;;;;;29.27;18.00;;;5.40;99.90;;;;;;5070766;28;20296;-80
2022/03/17 03:30:12;;;;;;;28.80;18.97;;;5.40;99.90;;;;;;5081335;28;20177;-82
2022/03/17 03:32:39;;;;;;;28.33;18.13;;;5.50;99.90;;;;;;5070937;28;20247;-81
2022/03/17 03:37:22;;;;;;;29.63;19.20;;;5.50;99.90;;;;;;5071273;28;20330;-81
2022/03/17 03:37:51;;;;;;;30.17;18.70;;;5.40;99.90;;;;;;5081331;28;20201;-84
2022/03/17 03:40:17;;;;;;;31.10;19.00;;;5.50;99.90;;;;;;5070937;28;20561;-83
2022/03/17 03:42:43;;;;;;;30.60;18.73;;;5.40;99.90;;;;;;5071508;28;20284;-83
2022/03/17 03:45:09;;;;;;;29.23;18.13;;;5.40;99.90;;;;;;5079835;28;20703;-81
2022/03/17 03:47:34;;;;;;;28.80;17.73;;;5.50;99.90;;;;;;5071377;28;20230;-79
2022/03/17 03:50:01;;;;;;;30.87;19.43;;;5.50;99.90;;;;;;5070713;28;20185;-81
2022/03/17 03:52:26;;;;;;;30.37;18.57;;;5.40;99.90;;;;;;5082397;28;20947;-77
2022/03/17 03:54:52;;;;;;;29.67;17.97;;;5.40;99.90;;;;;;5081580;28;20258;-83
2022/03/17 03:57:17;;;;;;;30.43;19.10;;;5.50;99.90;;;;;;5069051;28;21248;-83
2022/03/17 03:59:43;;;;;;;31.13;19.50;;;5.40;99.90;;;;;;5070196;28;20663;-81
2022/03/17 04:02:10;;;;;;;31.23;18.93;;;5.40;99.90;;;;;;5081999;28;20725;-81
2022/03/17 04:04:41;;;;;;;31.40;18.57;;;5.40;99.90;;;;;;5082943;28;20189;-80
2022/03/17 04:07:09;;;;;;;33.50;20.37;;;5.40;99.90;;;;;;5068839;28;20269;-82
2022/03/17 04:09:39;;;;;;;30.77;19.57;;;5.40;99.90;;;;;;5069727;28;20173;-81
2022/03/17 04:12:07;;;;;;;28.53;18.70;;;5.40;99.90;;;;;;5080534;28;20247;-83
2022/03/17 04:14:33;;;;;;;30.00;17.73;;;5.40;99.90;;;;;;5068289;28;20193;-80
2022/03/17 04:17:00;;;;;;;30.17;18.77;;;5.40;99.90;;;;;;5071390;28;20686;-85
2022/03/17 04:19:26;;;;;;;30.27;19.67;;;5.30;99.90;;;;;;5071946;28;20186;-84
2022/03/17 04:21:53;;;;;;;30.07;18.53;;;5.40;99.90;;;;;;5084392;28;20272;-79
2022/03/17 04:24:19;;;;;;;30.47;18.53;;;5.40;99.90;;;;;;5072221;28;20400;-81
2022/03/17 04:26:46;;;;;;;31.27;19.43;;;5.40;99.90;;;;;;5084318;28;20195;-82
2022/03/17 04:29:12;;;;;;;29.40;18.77;;;5.40;99.90;;;;;;5070274;28;20185;-83
2022/03/17 04:31:39;;;;;;;33.80;20.27;;;5.40;99.90;;;;;;5072302;28;20644;-80
2022/03/17 04:34:05;;;;;;;28.80;18.50;;;5.40;99.90;;;;;;5071077;28;20577;-83
2022/03/17 04:36:31;;;;;;;31.93;18.97;;;5.40;99.90;;;;;;5072885;28;20710;-82
2022/03/17 04:38:57;;;;;;;32.03;19.13;;;5.40;99.90;;;;;;5072358;28;20189;-82
2022/03/17 04:41:23;;;;;;;30.80;19.70;;;5.40;99.90;;;;;;5071360;28;20181;-82
2022/03/17 04:43:49;;;;;;;33.03;19.03;;;5.50;99.90;;;;;;5085095;28;20235;-79
2022/03/17 04:46:15;;;;;;;31.27;19.40;;;5.50;99.90;;;;;;5083867;28;20181;-78
2022/03/17 04:48:41;;;;;;;33.17;19.30;;;5.50;99.90;;;;;;5072358;28;20189;-80
2022/03/17 04:51:07;;;;;;;34.47;20.63;;;5.40;99.90;;;;;;5070465;28;20217;-82
2022/03/17 04:53:32;;;;;;;33.43;20.67;;;5.50;99.90;;;;;;5084601;28;20261;-81
2022/03/17 04:56:00;;;;;;;32.77;19.77;;;5.40;99.90;;;;;;5080741;28;20185;-80
2022/03/17 04:58:28;;;;;;;31.77;19.73;;;5.40;99.90;;;;;;5067185;28;20185;-79
2022/03/17 05:00:55;;;;;;;30.07;19.20;;;5.50;99.90;;;;;;5069881;28;20968;-77
2022/03/17 05:03:21;;;;;;;30.20;19.10;;;5.50;99.90;;;;;;5067332;28;20232;-79
2022/03/17 05:05:47;;;;;;;31.00;19.13;;;5.50;99.90;;;;;;5067353;28;20243;-79
2022/03/17 05:08:16;;;;;;;30.47;19.07;;;5.50;99.90;;;;;;5063657;28;20684;-79
2022/03/17 05:10:43;;;;;;;29.37;19.10;;;5.40;99.90;;;;;;5064650;28;20662;-80
2022/03/17 05:13:10;;;;;;;30.63;19.63;;;5.50;99.90;;;;;;5066224;28;20259;-79
2022/03/17 05:15:37;;;;;;;32.30;20.33;;;5.50;99.90;;;;;;5065853;28;20332;-81
2022/03/17 05:18:05;;;;;;;32.87;19.43;;;5.50;99.90;;;;;;5066897;28;20186;-77
2022/03/17 05:20:31;;;;;;;30.70;19.47;;;5.50;99.90;;;;;;5066651;28;20185;-81
2022/03/17 05:22:57;;;;;;;29.23;19.17;;;5.50;99.90;;;;;;5077392;28;20627;-80
2022/03/17 05:25:22;;;;;;;33.83;20.83;;;5.50;99.90;;;;;;5067336;28;20216;-79
2022/03/17 05:27:51;;;;;;;32.43;19.70;;;5.50;99.90;;;;;;5076398;28;20236;-79
2022/03/17 05:30:18;;;;;;;30.67;19.67;;;5.50;99.90;;;;;;5066852;28;20193;-78
2022/03/17 05:32:46;;;;;;;32.37;20.50;;;5.50;99.90;;;;;;5077171;28;20201;-79
2022/03/17 05:35:13;;;;;;;30.47;19.77;;;5.50;99.90;;;;;;5076410;28;20188;-82
2022/03/17 05:37:39;;;;;;;30.63;19.73;;;5.60;99.90;;;;;;5068141;28;20675;-82
2022/03/17 05:40:15;;;;;;;33.97;21.50;;;5.60;99.90;;;;;;5065602;28;20188;-79
2022/03/17 05:43:01;;;;;;;35.03;21.47;;;5.50;99.90;;;;;;5065938;28;20211;-81
2022/03/17 05:45:28;;;;;;;30.50;19.70;;;5.60;99.90;;;;;;5076936;28;20264;-79
2022/03/17 05:47:56;;;;;;;29.17;18.97;;;5.50;99.90;;;;;;5064505;28;20220;-77
2022/03/17 05:50:25;;;;;;;32.40;20.27;;;5.50;99.90;;;;;;5064698;28;20182;-81
2022/03/17 05:52:51;;;;;;;32.13;19.83;;;5.50;99.90;;;;;;5066625;28;20215;-83
2022/03/17 05:55:20;;;;;;;28.73;18.70;;;5.60;99.90;;;;;;5065180;28;20185;-82
2022/03/17 05:57:47;;;;;;;33.20;21.00;;;5.60;99.90;;;;;;5065228;28;20185;-82
2022/03/17 06:00:16;;;;;;;32.87;20.90;;;5.60;99.90;;;;;;5066087;28;20292;-82
2022/03/17 06:02:42;;;;;;;32.80;20.83;;;5.70;99.90;;;;;;5065832;28;20667;-81
2022/03/17 06:05:09;;;;;;;32.17;19.80;;;5.60;99.90;;;;;;5075486;28;20226;-81
2022/03/17 06:07:39;;;;;;;33.17;20.37;;;5.70;99.90;;;;;;5064996;28;20271;-81
2022/03/17 06:10:07;;;;;;;31.00;20.30;;;5.70;99.90;;;;;;5079025;28;20190;-83
2022/03/17 06:12:33;;;;;;;32.00;20.23;;;5.70;99.90;;;;;;5069375;28;20209;-83
2022/03/17 06:15:00;;;;;;;30.27;18.97;;;5.70;99.90;;;;;;5068379;28;20198;-79
2022/03/17 06:17:43;;;;;;;34.53;20.57;;;5.70;99.90;;;;;;5068431;28;20729;-80
2022/03/17 06:20:14;;;;;;;30.97;20.47;;;5.70;99.90;;;;;;5078421;28;20220;-79
2022/03/17 06:22:41;;;;;;;32.97;20.33;;;5.70;99.90;;;;;;5068016;28;20707;-79
2022/03/17 06:25:08;;;;;;;35.77;21.07;;;5.70;99.90;;;;;;5067279;28;20221;-78
2022/03/17 06:27:34;;;;;;;31.70;20.60;;;5.70;99.90;;;;;;5068119;28;20185;-82
2022/03/17 06:30:04;;;;;;;29.03;18.73;;;5.80;99.90;;;;;;5067345;28;20184;-83
2022/03/17 06:32:30;;;;;;;34.73;21.07;;;5.80;99.90;;;;;;5075515;28;20555;-80
2022/03/17 06:34:56;;;;;;;34.77;20.83;;;5.80;99.90;;;;;;5076460;28;20197;-79
2022/03/17 06:37:21;;;;;;;32.23;19.67;;;5.80;99.90;;;;;;5067611;28;20262;-81
2022/03/17 06:39:47;;;;;;;33.33;20.80;;;5.80;99.90;;;;;;5079441;28;20203;-79
2022/03/17 06:42:13;;;;;;;32.97;20.53;;;5.80;99.90;;;;;;5067659;28;20238;-82
2022/03/17 06:44:38;;;;;;;34.03;21.17;;;5.90;99.90;;;;;;5067569;28;20234;-79
2022/03/17 06:47:04;;;;;;;31.87;20.23;;;5.90;99.90;;;;;;5077291;28;20302;-78
2022/03/17 06:49:30;;;;;;;30.80;20.60;;;6.00;99.90;;;;;;5077248;28;20525;-81
2022/03/17 06:51:56;;;;;;;34.13;21.77;;;6.00;99.90;;;;;;5066139;28;20532;-81
2022/03/17 06:54:21;;;;;;;32.20;21.03;;;6.00;99.90;;;;;;5076880;28;20196;-82
2022/03/17 06:56:47;;;;;;;34.73;21.30;;;6.00;99.90;;;;;;5065891;28;20185;-80
2022/03/17 06:59:12;;;;;;;32.57;21.80;;;6.00;99.90;;;;;;5078355;28;20326;-79
2022/03/17 07:01:38;;;;;;;33.43;21.40;;;6.10;99.90;;;;;;5066837;28;20192;-80
2022/03/17 07:04:04;;;;;;;33.57;21.70;;;6.10;99.90;;;;;;5068715;28;20219;-78
2022/03/17 07:06:29;;;;;;;33.47;21.00;;;6.20;99.90;;;;;;5079595;28;20216;-81
2022/03/17 07:08:55;;;;;;;33.70;21.57;;;6.30;99.90;;;;;;5065610;28;20305;-81
2022/03/17 07:11:21;;;;;;;33.17;22.27;;;6.30;99.90;;;;;;5077779;28;20177;-81
2022/03/17 07:13:47;;;;;;;34.40;21.07;;;6.40;99.90;;;;;;5067408;28;20205;-79
2022/03/17 07:16:13;;;;;;;31.70;20.90;;;6.40;99.90;;;;;;5067305;28;20189;-79
2022/03/17 07:18:39;;;;;;;34.97;21.20;;;6.40;99.90;;;;;;5078279;28;20194;-80
2022/03/17 07:21:04;;;;;;;32.87;20.67;;;6.50;99.90;;;;;;5068541;28;20193;-81
2022/03/17 07:23:31;;;;;;;31.00;20.93;;;6.50;99.90;;;;;;5077264;28;20210;-82
2022/03/17 07:25:57;;;;;;;33.27;21.83;;;6.60;99.90;;;;;;5077565;28;20696;-79
2022/03/17 07:28:23;;;;;;;33.40;21.10;;;6.70;99.90;;;;;;5063594;28;20887;-80
2022/03/17 07:30:49;;;;;;;35.77;22.07;;;6.80;99.90;;;;;;5068034;28;20193;-81
2022/03/17 07:33:15;;;;;;;33.87;22.47;;;6.80;99.90;;;;;;5076703;28;20216;-82
2022/03/17 07:35:41;;;;;;;37.40;22.07;;;6.90;99.90;;;;;;5080698;28;20188;-79
2022/03/17 07:38:07;;;;;;;33.50;21.80;;;6.80;99.90;;;;;;5063749;28;20203;-79
2022/03/17 07:40:33;;;;;;;33.83;22.10;;;6.90;99.90;;;;;;5076715;28;20173;-79
2022/03/17 07:43:00;;;;;;;33.77;22.10;;;7.00;99.90;;;;;;5090313;28;20216;-77
2022/03/17 07:45:26;;;;;;;32.30;21.17;;;7.00;99.90;;;;;;5072615;28;20247;-79
2022/03/17 07:47:52;;;;;;;32.67;22.37;;;7.00;99.90;;;;;;5080043;28;20639;-76
2022/03/17 07:50:18;;;;;;;35.40;23.23;;;7.10;99.90;;;;;;5078722;28;20238;-80
2022/03/17 07:52:45;;;;;;;37.23;23.63;;;7.20;99.90;;;;;;5068414;28;20209;-83
2022/03/17 07:55:11;;;;;;;36.10;25.23;;;7.30;99.90;;;;;;5067722;28;20274;-80
2022/03/17 07:57:38;;;;;;;32.33;22.40;;;7.40;99.90;;;;;;5076681;28;21136;-82
2022/03/17 08:00:06;;;;;;;36.37;23.97;;;7.50;99.90;;;;;;5067508;28;20578;-81
2022/03/17 08:02:32;;;;;;;35.77;22.17;;;7.60;99.90;;;;;;5078360;28;20236;-83
2022/03/17 08:04:59;;;;;;;35.87;23.40;;;7.80;99.90;;;;;;5078444;28;20240;-80
2022/03/17 08:07:25;;;;;;;36.33;24.70;;;7.80;99.90;;;;;;5068009;28;20184;-83
2022/03/17 08:09:51;;;;;;;38.63;23.60;;;7.80;99.90;;;;;;5065621;28;20186;-81
2022/03/17 08:12:17;;;;;;;34.43;23.10;;;7.80;99.90;;;;;;5065765;28;20257;-81
2022/03/17 08:14:42;;;;;;;37.47;25.17;;;7.80;99.90;;;;;;5065780;28;20182;-82
2022/03/17 08:17:09;;;;;;;37.83;24.57;;;7.90;99.90;;;;;;5077055;28;20185;-80
2022/03/17 08:19:35;;;;;;;36.73;24.07;;;7.90;99.90;;;;;;5066609;28;20268;-80
2022/03/17 08:22:01;;;;;;;34.90;24.37;;;8.00;99.90;;;;;;5067926;28;20185;-83
2022/03/17 08:24:26;;;;;;;33.23;23.60;;;7.90;99.90;;;;;;5066756;28;20209;-82
2022/03/17 08:26:54;;;;;;;33.90;23.50;;;8.00;99.90;;;;;;5066028;28;20192;-80
2022/03/17 08:29:20;;;;;;;38.27;28.57;;;8.00;99.90;;;;;;5067103;28;20225;-82
2022/03/17 08:31:45;;;;;;;36.03;25.00;;;7.90;99.90;;;;;;5076754;28;20254;-81
2022/03/17 08:34:11;;;;;;;32.37;22.60;;;8.10;99.90;;;;;;5064993;28;20207;-81
2022/03/17 08:36:36;;;;;;;33.83;23.03;;;8.10;99.90;;;;;;5065379;28;20178;-82
2022/03/17 08:39:02;;;;;;;42.57;29.10;;;8.10;99.90;;;;;;5075157;28;20189;-81
2022/03/17 08:41:28;;;;;;;34.33;23.83;;;8.10;99.90;;;;;;5068930;28;20186;-81
2022/03/17 08:43:53;;;;;;;39.30;26.53;;;8.20;99.90;;;;;;5064125;28;20214;-83
2022/03/17 08:49:22;;;;;;;30.60;22.03;;;8.30;99.90;;;;;;5075662;28;20274;-80
2022/03/17 08:51:56;;;;;;;33.87;22.73;;;8.20;99.90;;;;;;5067082;28;20185;-82
2022/03/17 08:54:27;;;;;;;34.37;23.00;;;8.20;99.90;;;;;;5068050;28;20187;-83
2022/03/17 08:57:03;;;;;;;32.20;22.63;;;8.30;99.90;;;;;;5070648;28;20178;-82
2022/03/17 08:59:34;;;;;;;31.97;23.00;;;8.30;99.90;;;;;;5069451;28;20192;-82
2022/03/17 09:02:06;;;;;;;33.60;23.30;;;8.40;99.90;;;;;;5080817;28;20200;-83
2022/03/17 09:04:32;;;;;;;31.77;21.93;;;8.50;99.90;;;;;;5067397;28;20209;-81
2022/03/17 09:06:59;;;;;;;31.83;22.43;;;8.70;99.90;;;;;;5069184;28;20189;-81
2022/03/17 09:09:31;;;;;;;31.23;22.50;;;8.60;99.90;;;;;;5068768;28;20272;-82
2022/03/17 09:11:57;;;;;;;33.77;23.47;;;8.70;99.90;;;;;;5070780;28;20177;-81
2022/03/17 09:14:23;;;;;;;32.50;22.33;;;8.90;99.90;;;;;;5072749;28;20313;-80
2022/03/17 09:16:49;;;;;;;36.93;24.47;;;9.00;99.90;;;;;;5071542;28;20370;-81
2022/03/17 09:19:15;;;;;;;34.10;24.10;;;9.10;99.90;;;;;;5082795;28;20244;-81
2022/03/17 09:21:41;;;;;;;34.70;22.97;;;9.10;99.90;;;;;;5071044;28;20201;-81
2022/03/17 09:24:07;;;;;;;42.83;29.37;;;9.20;99.90;;;;;;5071637;28;20254;-81
2022/03/17 09:26:32;;;;;;;32.67;23.23;;;9.40;99.90;;;;;;5070403;28;20609;-81
2022/03/17 09:28:59;;;;;;;34.63;24.97;;;9.50;99.90;;;;;;5067345;28;20264;-81
2022/03/17 09:31:25;;;;;;;31.37;22.23;;;9.50;99.90;;;;;;5067939;28;20186;-84
2022/03/17 09:33:50;;;;;;;32.70;22.80;;;9.50;99.90;;;;;;5069501;28;20201;-82
2022/03/17 09:36:16;;;;;;;34.07;23.80;;;9.60;99.90;;;;;;5067872;28;20184;-82
2022/03/17 09:38:43;;;;;;;32.33;23.57;;;9.70;99.90;;;;;;5065795;28;20243;-80
2022/03/17 09:41:25;;;;;;;32.47;22.97;;;9.90;99.90;;;;;;5065269;28;20208;-81
2022/03/17 09:43:53;;;;;;;33.37;23.33;;;10.20;99.90;;;;;;5064550;28;21245;-80
2022/03/17 09:46:23;;;;;;;31.63;22.73;;;10.40;99.90;;;;;;5059776;28;20282;-80
2022/03/17 09:48:53;;;;;;;29.47;22.37;;;10.50;99.90;;;;;;5065183;28;20189;-81
2022/03/17 09:51:22;;;;;;;33.57;23.53;;;10.60;99.90;;;;;;5079591;28;20208;-81
2022/03/17 09:53:48;;;;;;;29.50;22.43;;;10.60;99.90;;;;;;5070223;28;20599;-82
2022/03/17 09:56:13;;;;;;;34.40;25.07;;;10.50;99.90;;;;;;5069945;28;20239;-83
2022/03/17 09:58:39;;;;;;;36.77;25.00;;;10.50;99.90;;;;;;5068394;28;20230;-80
2022/03/17 10:01:06;;;;;;;31.87;24.23;;;10.40;99.90;;;;;;5070879;28;20192;-81
2022/03/17 10:03:34;;;;;;;34.80;24.63;;;10.30;99.90;;;;;;5082412;28;20216;-82
2022/03/17 10:06:05;;;;;;;30.33;22.73;;;10.50;99.90;;;;;;5071492;28;20240;-81
2022/03/17 10:08:33;;;;;;;32.20;24.63;;;10.50;99.90;;;;;;5072089;28;20181;-83
2022/03/17 10:10:59;;;;;;;30.67;22.67;;;10.60;99.90;;;;;;5084523;28;20270;-82
2022/03/17 10:13:26;;;;;;;30.77;22.23;;;10.80;99.90;;;;;;5070760;28;20265;-81
2022/03/17 10:16:13;;;;;;;32.70;23.00;;;11.00;99.90;;;;;;5071200;28;20868;-81
2022/03/17 10:18:39;;;;;;;32.63;23.60;;;11.10;99.90;;;;;;5083145;28;20236;-82
2022/03/17 10:21:24;;;;;;;33.70;23.70;;;11.20;99.90;;;;;;5070359;28;20186;-82
2022/03/17 10:23:59;;;;;;;31.43;23.13;;;11.20;99.90;;;;;;5081599;28;20238;-81
2022/03/17 10:26:34;;;;;;;34.27;24.03;;;11.10;99.90;;;;;;5072058;28;20196;-81
2022/03/17 10:29:22;;;;;;;32.67;23.27;;;11.10;99.90;;;;;;5070130;28;20190;-82
2022/03/17 10:31:50;;;;;;;32.00;23.93;;;11.10;99.90;;;;;;5072351;28;21184;-81
2022/03/17 10:34:17;;;;;;;29.27;21.93;;;11.10;99.90;;;;;;5071818;28;20177;-81
2022/03/17 10:36:45;;;;;;;28.23;22.67;;;11.10;99.90;;;;;;5074717;28;20683;-82
2022/03/17 10:39:12;;;;;;;30.40;21.97;;;11.00;99.90;;;;;;5076055;28;20196;-81
2022/03/17 10:41:47;;;;;;;30.73;19.77;;;11.00;99.90;;;;;;5073382;28;20182;-81
2022/03/17 10:44:18;;;;;;;23.70;16.83;;;11.00;99.90;;;;;;5074235;28;20258;-81
2022/03/17 10:47:02;;;;;;;21.77;16.10;;;10.80;99.90;;;;;;5074814;28;20191;-81
2022/03/17 10:49:30;;;;;;;22.57;17.03;;;10.60;99.90;;;;;;5073250;28;20678;-81
2022/03/17 10:51:57;;;;;;;24.13;15.30;;;10.40;99.90;;;;;;5087057;28;20185;-81
2022/03/17 10:54:23;;;;;;;23.27;15.73;;;10.40;99.90;;;;;;5073887;28;20188;-81
2022/03/17 10:57:09;;;;;;;23.20;17.07;;;10.30;99.90;;;;;;5077239;28;20684;-81
2022/03/17 10:59:44;;;;;;;24.03;16.83;;;10.20;99.90;;;;;;5074015;28;20173;-81
2022/03/17 11:02:21;;;;;;;21.93;16.20;;;10.10;99.90;;;;;;5076390;28;20180;-81
2022/03/17 11:04:47;;;;;;;22.57;16.70;;;10.00;99.90;;;;;;5076314;28;20208;-83
2022/03/17 11:07:15;;;;;;;24.40;19.17;;;9.90;99.90;;;;;;5077303;28;20881;-80
2022/03/17 11:09:42;;;;;;;26.50;18.53;;;9.80;99.90;;;;;;5077239;28;20177;-82
2022/03/17 11:12:17;;;;;;;24.57;17.63;;;9.90;99.90;;;;;;5076732;28;20197;-82
2022/03/17 11:14:44;;;;;;;22.73;17.13;;;9.80;99.90;;;;;;5069735;28;20193;-82
2022/03/17 11:17:14;;;;;;;21.17;17.03;;;9.70;99.90;;;;;;5077695;28;20183;-84
2022/03/17 11:19:42;;;;;;;22.03;17.17;;;9.70;99.90;;;;;;5070399;28;20287;-82
2022/03/17 11:22:10;;;;;;;23.30;17.47;;;9.70;99.90;;;;;;5067541;28;20189;-83
2022/03/17 11:24:37;;;;;;;22.93;18.27;;;9.60;99.90;;;;;;5066589;28;20270;-82
2022/03/17 11:27:12;;;;;;;25.87;18.37;;;9.60;99.90;;;;;;5076388;28;20182;-87
2022/03/17 11:29:40;;;;;;;25.13;19.77;;;9.60;99.90;;;;;;5078604;28;20625;-80
2022/03/17 11:32:09;;;;;;;26.00;19.13;;;9.50;99.90;;;;;;5067451;28;20197;-83
2022/03/17 11:34:38;;;;;;;24.57;19.70;;;9.60;99.90;;;;;;5067538;28;20189;-80
2022/03/17 11:37:24;;;;;;;27.63;21.23;;;9.50;99.90;;;;;;5076510;28;20659;-82
2022/03/17 11:39:55;;;;;;;28.40;20.33;;;9.40;99.90;;;;;;5078214;28;20189;-80
2022/03/17 11:42:38;;;;;;;27.03;19.20;;;9.30;99.90;;;;;;5064644;28;20218;-81
2022/03/17 11:45:15;;;;;;;28.47;20.83;;;9.30;99.90;;;;;;5067680;28;20201;-80
2022/03/17 11:47:45;;;;;;;25.23;18.97;;;9.20;99.90;;;;;;5065623;28;20291;-81
2022/03/17 11:50:33;;;;;;;27.63;20.53;;;9.20;99.90;;;;;;5078791;28;20184;-82
2022/03/17 11:53:03;;;;;;;27.50;20.90;;;9.20;99.90;;;;;;5066665;28;20205;-79
2022/03/17 11:55:56;;;;;;;27.67;20.07;;;9.20;99.90;;;;;;5066801;28;20220;-81
2022/03/17 11:58:47;;;;;;;27.80;21.13;;;9.20;99.90;;;;;;5066920;28;20213;-80
2022/03/17 12:01:23;;;;;;;26.23;20.20;;;9.10;99.90;;;;;;5066336;28;20663;-81
2022/03/17 12:04:06;;;;;;;28.00;20.90;;;9.10;99.90;;;;;;5078076;28;20227;-81
2022/03/17 12:06:34;;;;;;;30.50;21.70;;;9.00;99.90;;;;;;5067473;28;20189;-81
2022/03/17 12:09:10;;;;;;;30.13;21.87;;;9.10;99.90;;;;;;5076450;28;20185;-80
2022/03/17 12:11:42;;;;;;;28.77;21.20;;;9.00;99.90;;;;;;5078364;28;20180;-81
2022/03/17 12:14:24;;;;;;;31.20;22.93;;;9.00;99.90;;;;;;5067389;28;20209;-81
2022/03/17 12:17:01;;;;;;;29.17;22.00;;;8.90;99.90;;;;;;5077059;28;20658;-80
2022/03/17 12:19:33;;;;;;;30.13;21.83;;;8.80;99.90;;;;;;5067601;28;20268;-81
2022/03/17 12:22:00;;;;;;;29.60;21.33;;;8.70;99.90;;;;;;5066429;28;20219;-81
2022/03/17 12:24:46;;;;;;;30.70;22.53;;;8.70;99.90;;;;;;5067210;28;20291;-82
2022/03/17 12:27:32;;;;;;;31.67;23.10;;;8.70;99.90;;;;;;5064366;28;20902;-81
2022/03/17 12:30:03;;;;;;;30.73;21.97;;;8.50;99.90;;;;;;5080999;28;20216;-80
2022/03/17 12:32:38;;;;;;;36.77;22.90;;;8.50;99.90;;;;;;5068058;28;20248;-80
2022/03/17 12:35:05;;;;;;;30.43;22.33;;;8.50;99.90;;;;;;5067972;28;20569;-78
2022/03/17 12:37:33;;;;;;;32.07;23.63;;;8.50;99.90;;;;;;5077173;28;20272;-81
2022/03/17 12:40:02;;;;;;;33.53;24.50;;;8.50;99.90;;;;;;5066724;28;20185;-82
2022/03/17 12:42:29;;;;;;;34.23;23.27;;;8.40;99.90;;;;;;5067163;28;20209;-78
2022/03/17 12:45:07;;;;;;;36.37;25.50;;;8.30;99.90;;;;;;5067336;28;20201;-79
2022/03/17 12:47:37;;;;;;;34.57;24.87;;;8.30;99.90;;;;;;5068078;28;20681;-80
2022/03/17 12:50:08;;;;;;;36.07;24.47;;;8.30;99.90;;;;;;5067374;28;20173;-80
2022/03/17 12:52:37;;;;;;;32.97;23.80;;;8.30;99.90;;;;;;5068024;28;20303;-82